createdAt,value
2018-05-21T00:00:46.542Z,14.53
2018-05-21T00:01:50.758Z,14.52
2018-05-21T00:02:54.894Z,14.48
2018-05-21T00:04:00.324Z,14.54
2018-05-21T00:05:05.256Z,14.58
2018-05-21T00:06:09.466Z,14.69
2018-05-21T00:07:13.712Z,14.58
2018-05-21T00:08:17.846Z,14.44
2018-05-21T00:09:22.028Z,14.37
2018-05-21T00:10:26.227Z,14.34
2018-05-21T00:11:30.656Z,14.27
2018-05-21T00:12:35.084Z,14.24
2018-05-21T00:13:39.286Z,14.25
2018-05-21T00:14:43.437Z,14.23
2018-05-21T00:15:47.693Z,14.18
2018-05-21T00:16:51.900Z,14.12
2018-05-21T00:17:56.016Z,14.06
2018-05-21T00:19:01.370Z,14.02
2018-05-21T00:20:06.244Z,13.94
2018-05-21T00:21:10.492Z,13.91
2018-05-21T00:22:14.593Z,14.00
2018-05-21T00:23:18.722Z,14.07
2018-05-21T00:24:22.837Z,14.04
2018-05-21T00:25:27.367Z,14.11
2018-05-21T00:26:31.490Z,14.07
2018-05-21T00:27:35.583Z,14.04
2018-05-21T00:28:39.776Z,14.11
2018-05-21T00:29:43.904Z,14.04
2018-05-21T00:30:48.364Z,13.98
2018-05-21T00:31:52.471Z,13.93
2018-05-21T00:32:57.799Z,13.83
2018-05-21T00:34:02.552Z,13.72
2018-05-21T00:35:06.872Z,13.61
2018-05-21T00:36:10.966Z,13.64
2018-05-21T00:37:15.089Z,13.60
2018-05-21T00:38:19.491Z,13.61
2018-05-21T00:39:23.610Z,13.63
2018-05-21T00:40:27.818Z,13.59
2018-05-21T00:41:31.928Z,13.54
2018-05-21T00:42:36.032Z,13.50
2018-05-21T00:43:40.221Z,13.49
2018-05-21T00:44:44.742Z,13.49
2018-05-21T00:45:49.174Z,13.53
2018-05-21T00:46:53.996Z,13.53
2018-05-21T00:47:58.113Z,13.52
2018-05-21T00:49:02.237Z,13.47
2018-05-21T00:50:06.676Z,13.49
2018-05-21T00:51:11.134Z,13.73
2018-05-21T00:52:15.543Z,13.91
2018-05-21T00:53:19.632Z,14.01
2018-05-21T00:54:23.753Z,14.07
2018-05-21T00:55:38.185Z,14.11
2018-05-21T00:56:42.696Z,13.95
2018-05-21T00:57:46.852Z,13.98
2018-05-21T00:58:50.969Z,13.98
2018-05-21T00:59:55.074Z,13.89
2018-05-21T01:01:00.181Z,13.87
2018-05-21T01:02:05.360Z,13.93
2018-05-21T01:03:09.805Z,13.93
2018-05-21T01:04:13.939Z,14.04
2018-05-21T01:05:18.036Z,14.08
2018-05-21T01:06:22.244Z,14.09
2018-05-21T01:07:26.408Z,14.02
2018-05-21T01:08:30.509Z,13.88
2018-05-21T01:09:34.657Z,13.74
2018-05-21T01:10:38.776Z,13.63
2018-05-21T01:11:42.950Z,13.59
2018-05-21T01:12:47.088Z,13.55
2018-05-21T01:13:51.216Z,13.47
2018-05-21T01:14:55.712Z,13.67
2018-05-21T01:16:00.042Z,13.63
2018-05-21T01:17:04.209Z,13.58
2018-05-21T01:18:08.638Z,13.62
2018-05-21T01:19:12.816Z,13.56
2018-05-21T01:20:17.236Z,13.50
2018-05-21T01:21:21.391Z,13.47
2018-05-21T01:22:25.500Z,13.45
2018-05-21T01:23:29.756Z,13.52
2018-05-21T01:24:33.915Z,13.51
2018-05-21T01:25:38.000Z,13.46
2018-05-21T01:26:42.437Z,13.46
2018-05-21T01:27:46.565Z,13.40
2018-05-21T01:28:50.772Z,13.44
2018-05-21T01:29:55.582Z,13.46
2018-05-21T01:31:00.727Z,13.32
2018-05-21T01:32:05.179Z,13.28
2018-05-21T01:33:09.305Z,13.33
2018-05-21T01:34:13.427Z,13.24
2018-05-21T01:35:17.540Z,13.15
2018-05-21T01:36:21.746Z,13.32
2018-05-21T01:37:25.833Z,13.52
2018-05-21T01:38:30.226Z,13.49
2018-05-21T01:39:34.407Z,13.50
2018-05-21T01:40:38.508Z,13.43
2018-05-21T01:41:42.744Z,13.35
2018-05-21T01:42:46.837Z,13.36
2018-05-21T01:43:50.948Z,13.45
2018-05-21T01:44:55.448Z,13.59
2018-05-21T01:46:00.017Z,13.61
2018-05-21T01:47:04.900Z,13.47
2018-05-21T01:48:09.037Z,13.55
2018-05-21T01:49:13.140Z,13.39
2018-05-21T01:50:17.307Z,13.32
2018-05-21T01:51:21.715Z,13.35
2018-05-21T01:52:25.832Z,13.39
2018-05-21T01:53:29.928Z,13.39
2018-05-21T01:54:34.127Z,13.39
2018-05-21T01:55:38.318Z,13.38
2018-05-21T01:56:42.498Z,13.30
2018-05-21T01:57:46.619Z,13.24
2018-05-21T01:58:50.743Z,13.24
2018-05-21T01:59:54.940Z,13.23
2018-05-21T02:01:00.378Z,13.18
2018-05-21T02:02:04.721Z,13.15
2018-05-21T02:03:08.856Z,13.21
2018-05-21T02:04:13.288Z,13.33
2018-05-21T02:05:17.496Z,13.28
2018-05-21T02:06:21.653Z,13.16
2018-05-21T02:07:25.790Z,13.18
2018-05-21T02:08:29.987Z,13.21
2018-05-21T02:09:34.435Z,13.22
2018-05-21T02:10:38.553Z,13.17
2018-05-21T02:11:42.654Z,13.05
2018-05-21T02:12:46.781Z,12.86
2018-05-21T02:13:51.040Z,12.79
2018-05-21T02:14:55.262Z,12.72
2018-05-21T02:16:00.939Z,12.87
2018-05-21T02:17:05.984Z,12.92
2018-05-21T02:18:10.110Z,12.84
2018-05-21T02:19:14.319Z,12.99
2018-05-21T02:20:18.494Z,12.91
2018-05-21T02:21:22.600Z,12.96
2018-05-21T02:22:26.779Z,12.96
2018-05-21T02:23:30.896Z,12.86
2018-05-21T02:24:34.996Z,12.93
2018-05-21T02:25:48.102Z,13.02
2018-05-21T02:26:52.614Z,12.99
2018-05-21T02:27:57.179Z,12.92
2018-05-21T02:29:03.069Z,12.90
2018-05-21T02:30:07.390Z,12.96
2018-05-21T02:31:11.977Z,12.82
2018-05-21T02:32:16.097Z,12.84
2018-05-21T02:33:20.813Z,12.83
2018-05-21T02:34:25.366Z,12.86
2018-05-21T02:35:30.504Z,12.72
2018-05-21T02:36:34.960Z,12.82
2018-05-21T02:37:39.414Z,12.82
2018-05-21T02:38:43.634Z,12.99
2018-05-21T02:39:49.722Z,12.97
2018-05-21T02:40:54.034Z,13.01
2018-05-21T02:41:59.123Z,12.88
2018-05-21T02:43:04.340Z,12.90
2018-05-21T02:44:08.455Z,12.80
2018-05-21T02:45:14.338Z,12.76
2018-05-21T02:46:18.773Z,12.65
2018-05-21T02:47:22.960Z,12.56
2018-05-21T02:48:31.025Z,12.56
2018-05-21T02:49:35.227Z,12.65
2018-05-21T02:50:42.094Z,12.71
2018-05-21T02:51:56.325Z,12.54
2018-05-21T02:53:01.118Z,12.54
2018-05-21T02:54:06.436Z,12.49
2018-05-21T02:55:10.677Z,12.45
2018-05-21T02:56:14.809Z,12.45
2018-05-21T02:57:18.913Z,12.51
2018-05-21T02:58:23.014Z,12.68
2018-05-21T02:59:27.136Z,12.69
2018-05-21T03:00:32.405Z,12.72
2018-05-21T03:01:36.529Z,12.58
2018-05-21T03:02:41.958Z,12.53
2018-05-21T03:03:46.186Z,12.40
2018-05-21T03:04:50.370Z,12.38
2018-05-21T03:05:56.195Z,12.35
2018-05-21T03:07:01.441Z,12.52
2018-05-21T03:08:05.801Z,12.54
2018-05-21T03:09:10.391Z,12.50
2018-05-21T03:10:14.582Z,12.57
2018-05-21T03:11:18.764Z,12.57
2018-05-21T03:12:22.883Z,12.53
2018-05-21T03:13:28.295Z,12.44
2018-05-21T03:14:32.516Z,12.38
2018-05-21T03:15:36.919Z,12.34
2018-05-21T03:16:41.354Z,12.37
2018-05-21T03:17:45.549Z,12.34
2018-05-21T03:18:54.357Z,12.37
2018-05-21T03:19:59.301Z,12.41
2018-05-21T03:21:03.719Z,12.49
2018-05-21T03:22:07.900Z,12.43
2018-05-21T03:23:12.008Z,12.41
2018-05-21T03:24:16.422Z,12.34
2018-05-21T03:25:20.497Z,12.29
2018-05-21T03:26:24.682Z,12.30
2018-05-21T03:27:28.780Z,12.30
2018-05-21T03:28:32.954Z,12.31
2018-05-21T03:29:37.147Z,12.32
2018-05-21T03:30:42.201Z,12.45
2018-05-21T03:31:46.324Z,12.50
2018-05-21T03:32:50.591Z,12.47
2018-05-21T03:33:54.896Z,12.44
2018-05-21T03:34:59.513Z,12.40
2018-05-21T03:36:04.617Z,12.40
2018-05-21T03:37:09.075Z,12.32
2018-05-21T03:38:13.170Z,12.19
2018-05-21T03:39:18.329Z,12.06
2018-05-21T03:40:22.451Z,11.97
2018-05-21T03:41:26.760Z,12.07
2018-05-21T03:42:32.671Z,12.28
2018-05-21T03:43:36.855Z,12.30
2018-05-21T03:44:41.024Z,12.45
2018-05-21T03:45:49.459Z,12.40
2018-05-21T03:46:53.923Z,12.44
2018-05-21T03:47:58.817Z,12.39
2018-05-21T03:49:02.973Z,12.53
2018-05-21T03:50:08.037Z,12.55
2018-05-21T03:51:12.167Z,12.66
2018-05-21T03:52:16.342Z,12.54
2018-05-21T03:53:20.483Z,12.64
2018-05-21T03:54:24.584Z,12.66
2018-05-21T03:55:28.770Z,12.58
2018-05-21T03:56:33.235Z,12.60
2018-05-21T03:57:37.349Z,12.71
2018-05-21T04:01:54.919Z,12.69
2018-05-21T04:03:30.968Z,12.75
2018-05-21T04:04:35.262Z,12.62
2018-05-21T04:05:39.573Z,12.54
2018-05-21T04:06:43.943Z,12.60
2018-05-21T04:07:48.054Z,12.69
2018-05-21T04:08:52.558Z,12.66
2018-05-21T04:09:57.584Z,12.75
2018-05-21T04:11:02.573Z,12.80
2018-05-21T04:12:06.914Z,13.02
2018-05-21T04:13:11.241Z,13.04
2018-05-21T04:14:15.344Z,13.11
2018-05-21T04:15:19.536Z,13.13
2018-05-21T04:16:23.946Z,13.17
2018-05-21T04:17:28.059Z,13.33
2018-05-21T04:18:32.160Z,13.37
2018-05-21T04:19:36.271Z,13.65
2018-05-21T04:20:40.470Z,13.69
2018-05-21T04:21:44.576Z,13.65
2018-05-21T04:22:48.998Z,13.68
2018-05-21T04:23:53.101Z,13.70
2018-05-21T04:24:57.745Z,13.68
2018-05-21T04:26:02.175Z,13.62
2018-05-21T04:27:06.280Z,13.60
2018-05-21T04:28:10.939Z,13.74
2018-05-21T04:29:15.036Z,13.83
2018-05-21T04:30:19.609Z,13.95
2018-05-21T04:31:23.744Z,14.10
2018-05-21T04:32:27.959Z,14.17
2018-05-21T04:33:32.080Z,14.43
2018-05-21T04:34:36.190Z,14.58
2018-05-21T04:35:40.774Z,14.57
2018-05-21T04:36:45.216Z,14.67
2018-05-21T04:37:49.601Z,14.68
2018-05-21T04:38:54.071Z,14.91
2018-05-21T04:39:58.956Z,14.98
2018-05-21T04:41:03.440Z,15.14
2018-05-21T04:42:08.007Z,15.26
2018-05-21T04:43:13.371Z,15.36
2018-05-21T04:44:17.819Z,15.41
2018-05-21T04:45:22.654Z,15.23
2018-05-21T04:46:26.845Z,15.24
2018-05-21T04:47:30.958Z,15.15
2018-05-21T04:48:35.055Z,15.18
2018-05-21T04:49:39.168Z,15.26
2018-05-21T04:50:43.286Z,15.32
2018-05-21T04:51:48.133Z,15.47
2018-05-21T04:52:52.214Z,15.59
2018-05-21T04:53:56.327Z,15.83
2018-05-21T04:55:00.436Z,15.90
2018-05-21T04:56:04.600Z,15.80
2018-05-21T04:57:08.692Z,15.96
2018-05-21T04:58:13.179Z,15.99
2018-05-21T04:59:17.294Z,15.92
2018-05-21T05:00:22.581Z,15.82
2018-05-21T05:01:27.121Z,15.89
2018-05-21T05:02:31.298Z,15.94
2018-05-21T05:03:35.381Z,16.00
2018-05-21T05:04:39.469Z,16.08
2018-05-21T05:05:43.562Z,16.27
2018-05-21T05:06:47.748Z,16.24
2018-05-21T05:07:51.919Z,16.13
2018-05-21T05:08:56.009Z,16.34
2018-05-21T05:10:00.114Z,16.48
2018-05-21T05:11:04.524Z,16.53
2018-05-21T05:12:08.611Z,16.55
2018-05-21T05:13:12.827Z,16.62
2018-05-21T05:14:17.891Z,16.61
2018-05-21T05:15:23.378Z,16.58
2018-05-21T05:16:27.494Z,16.75
2018-05-21T05:17:31.916Z,16.94
2018-05-21T05:18:36.052Z,17.19
2018-05-21T05:19:40.154Z,17.19
2018-05-21T05:20:44.273Z,17.22
2018-05-21T05:21:48.471Z,17.21
2018-05-21T05:22:52.560Z,17.33
2018-05-21T05:23:57.003Z,17.52
2018-05-21T05:25:01.186Z,17.65
2018-05-21T05:26:05.326Z,17.94
2018-05-21T05:27:09.427Z,18.00
2018-05-21T05:28:13.557Z,18.20
2018-05-21T05:29:19.784Z,18.27
2018-05-21T05:30:24.526Z,18.43
2018-05-21T05:31:28.651Z,18.64
2018-05-21T05:32:33.099Z,18.63
2018-05-21T05:33:37.332Z,18.79
2018-05-21T05:34:41.442Z,18.70
2018-05-21T05:35:45.967Z,18.61
2018-05-21T05:36:50.075Z,18.34
2018-05-21T05:37:54.191Z,18.35
2018-05-21T05:38:58.389Z,18.44
2018-05-21T05:40:03.045Z,18.56
2018-05-21T05:41:07.564Z,18.58
2018-05-21T05:42:12.275Z,19.03
2018-05-21T05:43:17.442Z,19.08
2018-05-21T05:44:21.637Z,18.87
2018-05-21T05:45:26.144Z,19.14
2018-05-21T05:46:30.324Z,19.39
2018-05-21T05:47:34.413Z,19.42
2018-05-21T05:48:38.837Z,19.60
2018-05-21T05:49:43.020Z,19.58
2018-05-21T05:50:47.241Z,19.39
2018-05-21T05:51:51.355Z,19.26
2018-05-21T05:52:55.543Z,19.54
2018-05-21T05:53:59.659Z,19.49
2018-05-21T05:55:03.774Z,19.49
2018-05-21T05:56:07.879Z,19.75
2018-05-21T05:57:12.068Z,20.01
2018-05-21T05:58:16.194Z,20.09
2018-05-21T05:59:21.161Z,20.01
2018-05-21T06:00:25.707Z,20.12
2018-05-21T06:01:30.207Z,19.93
2018-05-21T06:02:34.301Z,20.12
2018-05-21T06:03:38.544Z,20.17
2018-05-21T06:04:42.668Z,20.08
2018-05-21T06:05:46.775Z,20.28
2018-05-21T06:06:50.941Z,20.51
2018-05-21T06:07:55.406Z,20.49
2018-05-21T06:08:59.535Z,20.27
2018-05-21T06:10:03.727Z,20.53
2018-05-21T06:11:07.848Z,20.69
2018-05-21T06:12:11.979Z,20.70
2018-05-21T06:13:16.176Z,20.80
2018-05-21T06:14:21.455Z,20.64
2018-05-21T06:15:26.083Z,20.20
2018-05-21T06:16:30.489Z,20.52
2018-05-21T06:17:34.589Z,20.50
2018-05-21T06:18:38.711Z,20.84
2018-05-21T06:19:42.875Z,20.92
2018-05-21T06:20:47.312Z,21.04
2018-05-21T06:21:51.448Z,21.03
2018-05-21T06:22:55.663Z,21.09
2018-05-21T06:23:59.857Z,20.85
2018-05-21T06:25:04.057Z,20.65
2018-05-21T06:26:08.541Z,20.98
2018-05-21T06:27:13.595Z,21.12
2018-05-21T06:28:17.725Z,21.38
2018-05-21T06:29:22.470Z,21.57
2018-05-21T06:30:26.672Z,21.49
2018-05-21T06:31:31.195Z,21.15
2018-05-21T06:32:35.611Z,21.30
2018-05-21T06:33:39.757Z,21.28
2018-05-21T06:34:43.849Z,21.19
2018-05-21T06:35:47.945Z,21.25
2018-05-21T06:36:52.164Z,21.25
2018-05-21T06:37:56.294Z,21.18
2018-05-21T06:39:00.749Z,21.05
2018-05-21T06:40:04.961Z,20.91
2018-05-21T06:41:09.104Z,21.28
2018-05-21T06:42:14.589Z,21.54
2018-05-21T06:43:18.910Z,21.64
2018-05-21T06:44:23.128Z,21.80
2018-05-21T06:45:27.494Z,21.98
2018-05-21T06:46:31.596Z,21.99
2018-05-21T06:47:35.776Z,22.23
2018-05-21T06:48:39.921Z,22.11
2018-05-21T06:49:44.031Z,22.18
2018-05-21T06:50:48.111Z,22.20
2018-05-21T06:51:52.306Z,22.36
2018-05-21T06:52:56.821Z,22.30
2018-05-21T06:54:00.942Z,22.02
2018-05-21T06:55:05.218Z,22.01
2018-05-21T06:56:09.340Z,22.02
2018-05-21T06:57:14.797Z,22.06
2018-05-21T06:58:19.852Z,21.98
2018-05-21T06:59:23.994Z,21.97
2018-05-21T07:00:28.373Z,22.19
2018-05-21T07:01:32.795Z,22.19
2018-05-21T07:02:37.633Z,22.18
2018-05-21T07:03:41.741Z,22.10
2018-05-21T07:04:45.964Z,22.28
2018-05-21T07:05:50.093Z,22.42
2018-05-21T07:06:54.189Z,22.43
2018-05-21T07:07:58.454Z,22.38
2018-05-21T07:09:02.980Z,22.50
2018-05-21T07:10:07.098Z,22.90
2018-05-21T07:11:11.196Z,23.03
2018-05-21T07:12:15.421Z,23.00
2018-05-21T07:13:20.429Z,22.79
2018-05-21T07:14:24.513Z,22.65
2018-05-21T07:15:29.063Z,22.54
2018-05-21T07:16:33.456Z,22.68
2018-05-21T07:17:37.580Z,22.81
2018-05-21T07:18:41.775Z,23.12
2018-05-21T07:19:45.893Z,22.94
2018-05-21T07:20:50.099Z,22.95
2018-05-21T07:21:54.550Z,23.23
2018-05-21T07:22:58.645Z,23.23
2018-05-21T07:24:02.866Z,23.26
2018-05-21T07:25:07.126Z,23.44
2018-05-21T07:26:11.834Z,23.72
2018-05-21T07:27:15.937Z,23.64
2018-05-21T07:28:20.474Z,23.69
2018-05-21T07:29:24.584Z,23.34
2018-05-21T07:30:29.039Z,23.32
2018-05-21T07:31:33.261Z,23.35
2018-05-21T07:32:37.371Z,23.47
2018-05-21T07:33:41.967Z,23.50
2018-05-21T07:34:46.657Z,23.49
2018-05-21T07:35:50.797Z,23.52
2018-05-21T07:36:55.022Z,23.61
2018-05-21T07:37:59.328Z,23.75
2018-05-21T07:39:03.842Z,23.90
2018-05-21T07:40:07.986Z,23.92
2018-05-21T07:41:12.081Z,24.03
2018-05-21T07:42:16.219Z,24.08
2018-05-21T07:43:21.011Z,23.97
2018-05-21T07:44:25.120Z,24.07
2018-05-21T07:45:29.622Z,24.12
2018-05-21T07:46:33.739Z,23.84
2018-05-21T07:47:38.009Z,23.77
2018-05-21T07:48:42.376Z,23.87
2018-05-21T07:49:46.558Z,23.86
2018-05-21T07:50:50.720Z,23.66
2018-05-21T07:51:55.161Z,23.85
2018-05-21T07:52:59.352Z,23.88
2018-05-21T07:54:03.464Z,24.17
2018-05-21T07:55:12.299Z,24.31
2018-05-21T07:56:18.407Z,24.10
2018-05-21T07:57:23.138Z,23.96
2018-05-21T07:58:27.626Z,23.94
2018-05-21T07:59:31.809Z,23.83
2018-05-21T08:00:36.117Z,23.76
2018-05-21T08:01:40.261Z,23.72
2018-05-21T08:02:44.369Z,23.88
2018-05-21T08:03:48.562Z,23.95
2018-05-21T08:04:52.997Z,24.18
2018-05-21T08:05:57.272Z,24.24
2018-05-21T08:07:01.423Z,24.44
2018-05-21T08:08:05.607Z,24.64
2018-05-21T08:09:09.755Z,24.85
2018-05-21T08:10:13.905Z,24.96
2018-05-21T08:11:18.117Z,24.77
2018-05-21T08:12:23.209Z,24.72
2018-05-21T08:13:27.408Z,24.73
2018-05-21T08:14:31.566Z,24.90
2018-05-21T08:15:36.121Z,24.94
2018-05-21T08:16:40.432Z,24.84
2018-05-21T08:17:44.944Z,24.97
2018-05-21T08:18:49.097Z,25.11
2018-05-21T08:19:53.427Z,25.10
2018-05-21T08:20:57.560Z,25.20
2018-05-21T08:22:01.798Z,25.32
2018-05-21T08:23:05.996Z,25.24
2018-05-21T08:24:10.162Z,25.25
2018-05-21T08:25:14.456Z,25.33
2018-05-21T08:26:18.622Z,25.42
2018-05-21T08:27:23.218Z,25.42
2018-05-21T08:28:27.248Z,25.29
2018-05-21T08:29:31.350Z,25.17
2018-05-21T08:30:35.516Z,25.10
2018-05-21T08:31:39.764Z,25.15
2018-05-21T08:32:43.933Z,25.07
2018-05-21T08:33:48.382Z,25.04
2018-05-21T08:34:52.509Z,25.04
2018-05-21T08:35:56.709Z,25.01
2018-05-21T08:37:00.852Z,24.87
2018-05-21T08:38:04.996Z,24.78
2018-05-21T08:39:09.237Z,24.62
2018-05-21T08:40:13.712Z,24.49
2018-05-21T08:41:18.552Z,24.45
2018-05-21T08:42:24.389Z,24.54
2018-05-21T08:43:28.526Z,24.59
2018-05-21T08:44:32.662Z,24.79
2018-05-21T08:45:37.125Z,24.74
2018-05-21T08:46:41.822Z,24.73
2018-05-21T08:47:46.475Z,24.77
2018-05-21T08:48:50.668Z,24.75
2018-05-21T08:49:54.737Z,24.74
2018-05-21T08:50:59.007Z,24.84
2018-05-21T08:52:03.129Z,24.97
2018-05-21T08:53:07.633Z,25.03
2018-05-21T08:54:11.748Z,25.31
2018-05-21T08:55:15.962Z,25.46
2018-05-21T08:56:20.690Z,25.65
2018-05-21T08:57:24.809Z,25.65
2018-05-21T08:58:29.668Z,25.69
2018-05-21T08:59:34.091Z,25.53
2018-05-21T09:00:38.562Z,25.61
2018-05-21T09:01:42.941Z,25.58
2018-05-21T09:02:47.099Z,25.60
2018-05-21T09:03:51.208Z,25.79
2018-05-21T09:04:55.413Z,25.94
2018-05-21T09:05:59.859Z,26.12
2018-05-21T09:07:04.061Z,26.02
2018-05-21T09:08:08.206Z,25.97
2018-05-21T09:09:12.346Z,26.07
2018-05-21T09:10:16.832Z,26.14
2018-05-21T09:11:22.009Z,26.44
2018-05-21T09:12:26.608Z,26.75
2018-05-21T09:13:30.959Z,26.90
2018-05-21T09:14:35.159Z,26.77
2018-05-21T09:15:39.278Z,26.62
2018-05-21T09:16:43.454Z,26.58
2018-05-21T09:17:47.978Z,26.53
2018-05-21T09:18:52.576Z,26.52
2018-05-21T09:19:56.713Z,26.47
2018-05-21T09:21:00.895Z,26.79
2018-05-21T09:22:05.110Z,26.90
2018-05-21T09:23:09.299Z,26.62
2018-05-21T09:24:13.835Z,26.15
2018-05-21T09:25:19.163Z,25.96
2018-05-21T09:26:24.085Z,26.01
2018-05-21T09:27:29.206Z,26.08
2018-05-21T09:28:33.445Z,26.03
2018-05-21T09:29:37.590Z,25.96
2018-05-21T09:30:42.553Z,26.00
2018-05-21T09:31:46.852Z,26.08
2018-05-21T09:32:51.369Z,26.09
2018-05-21T09:33:55.576Z,26.15
2018-05-21T09:34:59.715Z,26.11
2018-05-21T09:36:03.928Z,25.86
2018-05-21T09:37:08.106Z,25.83
2018-05-21T09:38:12.281Z,25.97
2018-05-21T09:39:16.426Z,25.77
2018-05-21T09:40:20.850Z,25.64
2018-05-21T09:41:24.957Z,25.49
2018-05-21T09:42:29.085Z,25.61
2018-05-21T09:43:33.571Z,25.80
2018-05-21T09:44:37.813Z,25.84
2018-05-21T09:45:42.117Z,26.00
2018-05-21T09:46:46.740Z,26.26
2018-05-21T09:47:50.851Z,26.39
2018-05-21T09:48:55.016Z,26.34
2018-05-21T09:49:59.553Z,26.46
2018-05-21T09:51:03.716Z,26.47
2018-05-21T09:52:07.876Z,26.41
2018-05-21T09:53:12.025Z,26.45
2018-05-21T09:54:16.146Z,26.43
2018-05-21T09:55:21.974Z,26.56
2018-05-21T09:56:26.464Z,26.75
2018-05-21T09:57:30.577Z,26.86
2018-05-21T09:58:34.763Z,26.66
2018-05-21T09:59:38.894Z,26.46
2018-05-21T10:00:43.233Z,26.25
2018-05-21T10:01:48.144Z,26.50
2018-05-21T10:02:52.606Z,26.74
2018-05-21T10:03:56.835Z,26.73
2018-05-21T10:05:00.965Z,26.97
2018-05-21T10:06:05.141Z,27.01
2018-05-21T10:07:09.441Z,26.87
2018-05-21T10:08:13.941Z,26.76
2018-05-21T10:09:18.093Z,26.90
2018-05-21T10:10:23.127Z,26.91
2018-05-21T10:11:27.265Z,26.78
2018-05-21T10:12:31.401Z,26.70
2018-05-21T10:13:35.638Z,26.84
2018-05-21T10:14:40.288Z,26.76
2018-05-21T10:15:44.781Z,26.52
2018-05-21T10:16:49.221Z,26.41
2018-05-21T10:17:53.340Z,26.49
2018-05-21T10:18:57.570Z,26.72
2018-05-21T10:20:01.736Z,26.78
2018-05-21T10:21:06.164Z,26.72
2018-05-21T10:22:10.303Z,26.93
2018-05-21T10:23:14.433Z,27.18
2018-05-21T10:24:18.646Z,27.39
2018-05-21T10:25:22.996Z,27.72
2018-05-21T10:26:27.684Z,27.63
2018-05-21T10:27:31.787Z,27.77
2018-05-21T10:28:36.008Z,27.95
2018-05-21T10:29:40.152Z,27.92
2018-05-21T10:30:44.503Z,27.81
2018-05-21T10:31:48.634Z,28.02
2018-05-21T10:32:52.764Z,27.81
2018-05-21T10:33:57.301Z,28.17
2018-05-21T10:35:01.467Z,28.33
2018-05-21T10:36:05.669Z,28.21
2018-05-21T10:37:09.995Z,28.28
2018-05-21T10:38:14.183Z,28.29
2018-05-21T10:39:19.272Z,28.46
2018-05-21T10:40:23.776Z,28.22
2018-05-21T10:41:28.581Z,28.34
2018-05-21T10:42:32.726Z,28.28
2018-05-21T10:43:36.914Z,27.85
2018-05-21T10:44:41.051Z,27.47
2018-05-21T10:45:45.382Z,27.60
2018-05-21T10:46:50.089Z,27.30
2018-05-21T10:47:54.545Z,27.46
2018-05-21T10:48:58.909Z,27.60
2018-05-21T10:50:03.025Z,27.64
2018-05-21T10:51:07.215Z,27.66
2018-05-21T10:52:11.344Z,27.69
2018-05-21T10:53:15.623Z,27.94
2018-05-21T10:54:19.964Z,27.88
2018-05-21T10:55:24.193Z,27.78
2018-05-21T10:56:29.032Z,28.23
2018-05-21T10:57:33.283Z,28.34
2018-05-21T10:58:37.522Z,28.43
2018-05-21T10:59:41.724Z,28.63
2018-05-21T11:00:46.228Z,29.03
2018-05-21T11:01:50.389Z,29.70
2018-05-21T11:02:54.974Z,29.75
2018-05-21T11:03:59.182Z,29.44
2018-05-21T11:05:03.325Z,28.66
2018-05-21T11:06:07.600Z,29.00
2018-05-21T11:07:11.837Z,29.36
2018-05-21T11:08:15.994Z,29.36
2018-05-21T11:09:20.457Z,29.40
2018-05-21T11:10:24.590Z,29.65
2018-05-21T11:11:28.705Z,29.98
2018-05-21T11:12:33.778Z,29.81
2018-05-21T11:13:38.820Z,30.16
2018-05-21T11:14:43.936Z,30.25
2018-05-21T11:15:48.573Z,30.38
2018-05-21T11:16:52.792Z,30.10
2018-05-21T11:17:56.956Z,29.51
2018-05-21T11:19:01.098Z,29.33
2018-05-21T11:20:05.274Z,29.58
2018-05-21T11:21:09.384Z,29.03
2018-05-21T11:22:13.890Z,29.19
2018-05-21T11:23:18.024Z,28.78
2018-05-21T11:24:22.313Z,28.42
2018-05-21T11:25:26.448Z,28.60
2018-05-21T11:26:31.413Z,28.29
2018-05-21T11:27:35.608Z,28.86
2018-05-21T11:28:40.640Z,29.06
2018-05-21T11:29:44.784Z,29.24
2018-05-21T11:30:49.399Z,28.88
2018-05-21T11:31:54.317Z,28.88
2018-05-21T11:32:58.625Z,28.74
2018-05-21T11:34:03.500Z,28.91
2018-05-21T11:35:07.802Z,28.76
2018-05-21T11:36:11.941Z,28.82
2018-05-21T11:37:16.150Z,28.63
2018-05-21T11:38:20.384Z,28.70
2018-05-21T11:39:24.698Z,28.48
2018-05-21T11:40:28.867Z,28.50
2018-05-21T11:41:33.502Z,28.12
2018-05-21T11:42:38.344Z,27.61
2018-05-21T11:43:42.508Z,27.69
2018-05-21T11:44:46.667Z,27.76
2018-05-21T11:45:51.309Z,27.79
2018-05-21T11:46:55.532Z,27.76
2018-05-21T11:47:59.663Z,28.16
2018-05-21T11:49:03.799Z,28.56
2018-05-21T11:50:08.042Z,28.63
2018-05-21T11:51:12.165Z,29.24
2018-05-21T11:52:16.672Z,29.70
2018-05-21T11:53:20.855Z,29.48
2018-05-21T11:54:25.111Z,29.32
2018-05-21T11:55:29.290Z,29.47
2018-05-21T11:56:33.903Z,29.56
2018-05-21T11:57:38.738Z,29.90
2018-05-21T11:58:42.879Z,30.06
2018-05-21T11:59:47.067Z,30.20
2018-05-21T12:00:51.525Z,29.02
2018-05-21T12:01:55.930Z,28.56
2018-05-21T12:03:00.088Z,28.11
2018-05-21T12:04:04.318Z,28.34
2018-05-21T12:05:08.581Z,28.87
2018-05-21T12:06:12.745Z,28.72
2018-05-21T12:07:16.999Z,28.99
2018-05-21T12:08:21.161Z,29.00
2018-05-21T12:09:25.674Z,28.33
2018-05-21T12:10:29.895Z,27.98
2018-05-21T12:11:34.795Z,27.88
2018-05-21T12:12:38.972Z,27.68
2018-05-21T12:13:43.972Z,28.08
2018-05-21T12:14:48.179Z,27.48
2018-05-21T12:15:53.053Z,27.63
2018-05-21T12:16:57.174Z,27.98
2018-05-21T12:18:01.329Z,28.51
2018-05-21T12:19:05.444Z,29.06
2018-05-21T12:20:09.613Z,29.76
2018-05-21T12:21:13.836Z,29.48
2018-05-21T12:22:18.313Z,28.55
2018-05-21T12:23:23.329Z,28.38
2018-05-21T12:24:27.541Z,27.87
2018-05-21T12:25:31.661Z,28.52
2018-05-21T12:26:36.797Z,29.32
2018-05-21T12:27:41.605Z,29.04
2018-05-21T12:28:45.840Z,28.87
2018-05-21T12:29:50.004Z,29.07
2018-05-21T12:30:54.782Z,29.80
2018-05-21T12:31:58.997Z,29.27
2018-05-21T12:33:03.447Z,29.10
2018-05-21T12:34:07.817Z,29.33
2018-05-21T12:35:12.211Z,30.05
2018-05-21T12:36:16.801Z,30.17
2018-05-21T12:37:20.915Z,29.87
2018-05-21T12:38:25.034Z,30.13
2018-05-21T12:39:29.290Z,30.59
2018-05-21T12:40:34.473Z,29.23
2018-05-21T12:41:38.619Z,28.42
2018-05-21T12:42:43.534Z,28.13
2018-05-21T12:43:47.674Z,28.37
2018-05-21T12:44:52.210Z,29.20
2018-05-21T12:45:56.650Z,30.30
2018-05-21T12:47:00.765Z,31.00
2018-05-21T12:48:08.972Z,31.02
2018-05-21T12:49:17.598Z,30.42
2018-05-21T12:50:24.065Z,30.62
2018-05-21T12:51:31.135Z,30.24
2018-05-21T12:52:38.944Z,30.29
2018-05-21T12:53:45.681Z,31.06
2018-05-21T12:54:52.119Z,30.69
2018-05-21T12:55:58.301Z,30.40
2018-05-21T12:57:02.700Z,30.76
2018-05-21T12:58:06.921Z,30.52
2018-05-21T12:59:11.058Z,30.63
2018-05-21T13:00:17.262Z,31.12
2018-05-21T13:01:21.409Z,30.55
2018-05-21T13:02:25.569Z,30.85
2018-05-21T13:03:30.117Z,31.01
2018-05-21T13:04:34.225Z,31.73
2018-05-21T13:05:38.417Z,32.04
2018-05-21T13:06:42.635Z,31.56
2018-05-21T13:07:46.843Z,31.66
2018-05-21T13:08:50.980Z,30.73
2018-05-21T13:09:55.086Z,30.33
2018-05-21T13:10:59.235Z,30.98
2018-05-21T13:12:03.373Z,31.03
2018-05-21T13:13:07.584Z,30.60
2018-05-21T13:14:11.871Z,31.60
2018-05-21T13:15:16.624Z,32.58
2018-05-21T13:16:20.918Z,33.17
2018-05-21T13:17:25.339Z,32.80
2018-05-21T13:18:29.574Z,31.98
2018-05-21T13:19:33.789Z,32.05
2018-05-21T13:20:38.225Z,32.63
2018-05-21T13:21:42.542Z,32.96
2018-05-21T13:22:46.690Z,33.57
2018-05-21T13:23:50.847Z,34.93
2018-05-21T13:24:54.974Z,36.04
2018-05-21T13:25:59.213Z,36.54
2018-05-21T13:27:03.673Z,36.46
2018-05-21T13:28:07.817Z,35.58
2018-05-21T13:29:12.077Z,35.06
2018-05-21T13:30:17.410Z,34.42
2018-05-21T13:31:21.529Z,35.27
2018-05-21T13:32:25.773Z,35.27
2018-05-21T13:33:30.313Z,33.38
2018-05-21T13:34:35.475Z,33.36
2018-05-21T13:35:39.659Z,32.26
2018-05-21T13:36:44.547Z,31.15
2018-05-21T13:37:48.707Z,30.94
2018-05-21T13:38:53.231Z,30.86
2018-05-21T13:39:57.701Z,32.11
2018-05-21T13:41:01.815Z,32.51
2018-05-21T13:42:05.972Z,33.12
2018-05-21T13:43:10.309Z,33.09
2018-05-21T13:44:14.409Z,32.38
2018-05-21T13:45:18.748Z,31.75
2018-05-21T13:46:22.937Z,31.54
2018-05-21T13:47:27.111Z,32.32
2018-05-21T13:48:31.298Z,33.08
2018-05-21T13:49:35.405Z,33.95
2018-05-21T13:50:40.197Z,34.89
2018-05-21T13:51:45.330Z,34.52
2018-05-21T13:52:49.445Z,34.07
2018-05-21T13:53:53.564Z,34.00